Time;durP1;ratioP1;P1;durP2;ratioP2;P2;SDS_P1;SDS_P2;PMS_P1;PMS_P2;Temp;Humidity;BMP_temperature;BMP_pressure;BME280_temperature;BME280_humidity;BME280_pressure;Samples;Min_cycle;Max_cycle;Signal;HPM_P1;HPM_P2
2023/03/18 00:01:59;;;;;;;6.87;3.47;;;13.40;55.40;;;;;;5048100;28;20423;-72
2023/03/18 00:04:25;;;;;;;8.50;3.40;;;13.30;55.20;;;;;;5028967;28;21778;-74
2023/03/18 00:06:50;;;;;;;7.30;3.60;;;13.30;54.80;;;;;;5052513;28;20419;-74
2023/03/18 00:09:16;;;;;;;9.37;4.27;;;13.40;54.80;;;;;;5051762;28;20189;-73
2023/03/18 00:11:42;;;;;;;8.87;4.13;;;13.40;54.60;;;;;;5048917;28;20184;-73
2023/03/18 00:14:08;;;;;;;13.13;6.67;;;13.40;54.20;;;;;;5050452;28;20685;-73
2023/03/18 00:16:35;;;;;;;6.57;4.13;;;13.40;53.80;;;;;;5050823;28;20186;-74
2023/03/18 00:19:03;;;;;;;5.97;3.13;;;13.50;53.70;;;;;;5049552;28;20422;-73
2023/03/18 00:21:30;;;;;;;5.27;2.50;;;13.50;54.00;;;;;;5042428;28;20536;-73
2023/03/18 00:23:57;;;;;;;6.93;3.70;;;13.50;53.20;;;;;;5031608;28;20435;-74
2023/03/18 00:26:24;;;;;;;6.53;3.40;;;13.60;52.60;;;;;;5044842;28;20434;-73
2023/03/18 00:28:50;;;;;;;5.37;2.57;;;13.60;52.40;;;;;;5045917;28;20512;-74
2023/03/18 00:31:16;;;;;;;5.23;2.67;;;13.60;54.40;;;;;;5046288;28;20533;-73
2023/03/18 00:33:44;;;;;;;5.03;2.83;;;13.50;55.70;;;;;;5049309;28;20463;-73
2023/03/18 00:36:14;;;;;;;5.87;3.17;;;13.40;56.20;;;;;;5048509;28;20200;-73
2023/03/18 00:38:41;;;;;;;11.00;3.20;;;13.30;56.80;;;;;;5048189;28;20432;-72
2023/03/18 00:41:10;;;;;;;2.93;2.20;;;13.20;56.40;;;;;;5041544;28;20532;-73
2023/03/18 00:43:44;;;;;;;5.13;2.10;;;13.20;54.50;;;;;;5048494;28;20412;-73
2023/03/18 00:46:16;;;;;;;4.10;2.30;;;13.20;54.50;;;;;;5045268;28;20427;-74
2023/03/18 00:48:43;;;;;;;9.67;2.50;;;13.20;54.60;;;;;;5048627;28;20427;-73
2023/03/18 00:51:12;;;;;;;3.13;2.27;;;13.20;54.80;;;;;;5040509;28;20554;-72
2023/03/18 00:53:39;;;;;;;7.63;2.50;;;13.10;55.30;;;;;;5052616;28;20811;-74
2023/03/18 00:56:05;;;;;;;4.87;2.03;;;13.10;55.70;;;;;;5049380;28;20411;-73
2023/03/18 00:58:31;;;;;;;3.60;1.97;;;13.00;55.80;;;;;;5049331;28;21338;-73
2023/03/18 01:00:56;;;;;;;2.87;2.40;;;13.00;56.10;;;;;;5037535;28;20214;-74
2023/03/18 01:03:24;;;;;;;4.00;2.60;;;12.90;56.20;;;;;;5048774;28;20587;-74
2023/03/18 01:05:50;;;;;;;5.93;2.43;;;12.90;56.40;;;;;;5047102;28;20180;-74
2023/03/18 01:08:16;;;;;;;4.10;2.63;;;12.90;57.20;;;;;;5046351;28;20473;-74
2023/03/18 01:10:42;;;;;;;5.10;2.90;;;12.80;57.60;;;;;;5023802;28;20461;-74
2023/03/18 01:13:07;;;;;;;4.70;2.70;;;12.80;58.40;;;;;;5028097;28;20177;-74
2023/03/18 01:15:33;;;;;;;5.57;2.97;;;12.70;58.80;;;;;;5051748;28;20235;-73
2023/03/18 01:17:59;;;;;;;8.37;2.70;;;12.60;59.10;;;;;;5033838;28;20246;-74
2023/03/18 01:20:25;;;;;;;3.53;2.53;;;12.60;59.50;;;;;;5046655;28;21948;-74
2023/03/18 01:22:51;;;;;;;5.00;2.77;;;12.50;59.90;;;;;;5051340;28;20434;-72
2023/03/18 01:25:17;;;;;;;3.77;3.07;;;12.50;60.10;;;;;;5048514;28;20459;-73
2023/03/18 01:27:43;;;;;;;5.73;2.80;;;12.30;60.30;;;;;;5047881;28;20604;-73
2023/03/18 01:30:10;;;;;;;5.40;3.20;;;12.30;59.90;;;;;;5052339;28;20274;-74
2023/03/18 01:32:36;;;;;;;5.17;2.23;;;12.20;59.10;;;;;;5056264;28;20455;-74
2023/03/18 01:35:03;;;;;;;4.13;2.10;;;12.20;59.10;;;;;;5061740;28;20516;-73
2023/03/18 01:37:28;;;;;;;4.73;2.37;;;12.20;57.80;;;;;;5060454;28;20410;-72
2023/03/18 01:39:54;;;;;;;2.93;2.20;;;12.40;57.20;;;;;;5061067;28;20552;-73
2023/03/18 01:42:21;;;;;;;8.40;2.13;;;12.50;56.40;;;;;;5062021;28;20214;-73
2023/03/18 01:44:47;;;;;;;7.67;2.13;;;12.70;55.20;;;;;;5061069;28;20229;-73
2023/03/18 01:47:16;;;;;;;3.73;1.90;;;12.90;54.40;;;;;;5061350;28;20484;-73
2023/03/18 01:49:46;;;;;;;4.70;2.03;;;13.00;54.00;;;;;;5036805;28;20825;-71
2023/03/18 01:52:21;;;;;;;3.37;1.90;;;13.10;53.40;;;;;;5056134;28;20419;-72
2023/03/18 01:55:09;;;;;;;3.67;2.00;;;13.10;53.60;;;;;;5054812;28;20512;-73
2023/03/18 01:57:35;;;;;;;4.30;1.90;;;13.20;53.60;;;;;;5043968;28;20468;-72
2023/03/18 02:00:03;;;;;;;4.83;2.07;;;13.20;53.40;;;;;;5038703;28;20548;-73
2023/03/18 02:02:29;;;;;;;3.00;2.17;;;13.20;53.40;;;;;;5043690;28;20411;-74
2023/03/18 02:05:00;;;;;;;3.90;1.80;;;13.30;53.00;;;;;;5041979;28;20569;-73
2023/03/18 02:07:29;;;;;;;3.07;1.70;;;13.30;52.90;;;;;;5050292;28;20434;-74
2023/03/18 02:09:58;;;;;;;4.23;2.30;;;13.30;52.90;;;;;;5038935;28;20924;-72
2023/03/18 02:12:37;;;;;;;3.53;1.87;;;13.30;52.90;;;;;;5050066;28;20466;-75
2023/03/18 02:15:09;;;;;;;4.67;2.20;;;13.30;53.30;;;;;;5051034;28;20981;-73
2023/03/18 02:17:39;;;;;;;4.80;2.17;;;13.30;53.30;;;;;;5045781;28;20459;-74
2023/03/18 02:20:08;;;;;;;7.10;1.90;;;13.20;53.40;;;;;;5044247;28;20475;-73
2023/03/18 02:22:42;;;;;;;2.67;2.07;;;13.20;53.60;;;;;;5049979;28;20423;-73
2023/03/18 02:25:26;;;;;;;3.20;1.73;;;13.30;53.40;;;;;;5048550;28;20427;-73
2023/03/18 02:27:59;;;;;;;3.97;1.80;;;13.30;53.30;;;;;;5050086;28;20426;-73
2023/03/18 02:30:30;;;;;;;3.43;1.60;;;13.30;53.40;;;;;;5045306;28;20892;-74
2023/03/18 02:32:58;;;;;;;4.80;1.80;;;13.20;53.40;;;;;;5032540;28;20808;-73
2023/03/18 02:35:26;;;;;;;3.93;2.20;;;13.20;53.60;;;;;;5047619;28;20462;-74
2023/03/18 02:37:52;;;;;;;2.63;1.63;;;13.10;53.70;;;;;;5048066;28;20415;-75
2023/03/18 02:40:23;;;;;;;3.00;1.40;;;13.10;53.60;;;;;;5030119;28;21062;-74
2023/03/18 02:42:49;;;;;;;3.03;1.70;;;13.00;53.70;;;;;;5046433;28;20193;-73
2023/03/18 02:45:44;;;;;;;2.80;1.70;;;13.10;53.70;;;;;;5050526;28;20431;-73
2023/03/18 02:48:14;;;;;;;3.27;1.80;;;13.00;53.80;;;;;;5046366;28;20579;-73
2023/03/18 02:50:40;;;;;;;4.03;2.00;;;13.00;54.00;;;;;;5044436;28;20466;-75
2023/03/18 02:53:06;;;;;;;3.30;1.90;;;13.00;53.80;;;;;;5049529;28;20449;-73
2023/03/18 02:55:32;;;;;;;3.53;1.77;;;13.00;54.00;;;;;;5044532;28;20221;-73
2023/03/18 02:57:57;;;;;;;4.83;1.80;;;13.00;54.00;;;;;;5045125;28;20427;-74
2023/03/18 03:00:23;;;;;;;3.63;1.80;;;13.00;54.10;;;;;;5041588;28;20217;-73
2023/03/18 03:02:49;;;;;;;4.47;1.80;;;13.00;54.20;;;;;;5031153;28;20194;-75
2023/03/18 03:05:15;;;;;;;3.77;2.17;;;13.00;54.40;;;;;;5049066;28;20194;-73
2023/03/18 03:07:41;;;;;;;4.37;1.90;;;13.00;54.20;;;;;;5049113;28;20419;-74
2023/03/18 03:10:07;;;;;;;5.67;1.60;;;12.90;54.20;;;;;;5041653;28;20594;-75
2023/03/18 03:12:33;;;;;;;4.70;2.20;;;13.00;54.40;;;;;;5046445;28;20419;-73
2023/03/18 03:14:59;;;;;;;3.30;1.60;;;13.00;54.40;;;;;;5046977;28;20475;-73
2023/03/18 03:17:25;;;;;;;4.50;2.13;;;13.00;54.60;;;;;;5048864;28;21605;-73
2023/03/18 03:19:51;;;;;;;2.87;1.73;;;12.90;54.60;;;;;;5053315;28;20454;-75
2023/03/18 03:22:17;;;;;;;3.20;1.70;;;12.90;54.60;;;;;;5056689;28;20485;-72
2023/03/18 03:24:43;;;;;;;4.40;1.77;;;12.90;54.90;;;;;;5054364;28;20894;-73
2023/03/18 03:27:09;;;;;;;3.90;1.53;;;12.80;55.00;;;;;;5050643;28;20307;-73
2023/03/18 03:29:35;;;;;;;3.60;2.07;;;12.80;55.00;;;;;;5049366;28;20530;-73
2023/03/18 03:32:01;;;;;;;3.80;2.00;;;12.80;55.20;;;;;;5046226;28;20234;-74
2023/03/18 03:34:27;;;;;;;4.97;2.50;;;12.80;55.60;;;;;;5044268;28;20204;-73
2023/03/18 03:36:53;;;;;;;3.77;2.03;;;12.70;55.60;;;;;;5044461;28;20468;-73
2023/03/18 03:39:18;;;;;;;2.00;1.43;;;12.80;55.60;;;;;;5024532;28;20621;-73
2023/03/18 03:41:44;;;;;;;4.20;2.00;;;12.70;55.60;;;;;;5042437;28;20189;-74
2023/03/18 03:44:10;;;;;;;4.43;1.93;;;12.70;55.80;;;;;;5042562;28;20196;-73
2023/03/18 03:46:36;;;;;;;4.37;1.93;;;12.70;55.80;;;;;;5044749;28;20188;-72
2023/03/18 03:49:02;;;;;;;6.47;2.30;;;12.60;55.80;;;;;;5042714;28;20177;-72
2023/03/18 03:51:28;;;;;;;2.90;1.83;;;12.60;55.80;;;;;;5043734;28;20458;-72
2023/03/18 03:53:54;;;;;;;3.40;2.20;;;12.60;55.80;;;;;;5048093;28;20576;-73
2023/03/18 03:56:19;;;;;;;3.27;2.00;;;12.50;56.00;;;;;;5030537;28;20501;-72
2023/03/18 03:58:45;;;;;;;6.40;2.13;;;12.50;55.80;;;;;;5046795;28;20426;-72
2023/03/18 04:01:11;;;;;;;4.20;2.10;;;12.50;56.00;;;;;;5043304;28;20208;-73
2023/03/18 04:03:36;;;;;;;3.43;1.90;;;12.50;56.00;;;;;;5042133;28;20192;-74
2023/03/18 04:06:02;;;;;;;5.17;2.27;;;12.60;56.20;;;;;;5048436;28;20309;-74
2023/03/18 04:08:28;;;;;;;4.07;1.93;;;12.50;56.60;;;;;;5045805;28;20172;-73
2023/03/18 04:10:53;;;;;;;4.10;2.30;;;12.50;57.40;;;;;;5046262;28;20197;-74
2023/03/18 04:13:19;;;;;;;4.43;2.40;;;12.50;57.80;;;;;;5044465;28;20192;-74
2023/03/18 04:15:46;;;;;;;5.80;2.80;;;12.40;58.10;;;;;;5048064;28;20216;-72
2023/03/18 04:18:13;;;;;;;3.33;2.20;;;12.40;58.40;;;;;;5051300;28;20184;-73
2023/03/18 04:20:39;;;;;;;5.33;2.53;;;12.30;58.70;;;;;;5046045;28;20458;-74
2023/03/18 04:23:06;;;;;;;5.13;2.80;;;12.20;58.80;;;;;;5046843;28;20508;-73
2023/03/18 04:25:32;;;;;;;6.10;2.50;;;12.20;59.10;;;;;;5053745;28;20176;-73
2023/03/18 04:27:57;;;;;;;3.97;2.27;;;12.20;59.50;;;;;;5051427;28;20430;-72
2023/03/18 04:30:24;;;;;;;5.17;2.80;;;12.10;59.90;;;;;;5026977;28;20262;-72
2023/03/18 04:32:51;;;;;;;6.00;2.10;;;12.00;60.40;;;;;;5050997;28;20214;-73
2023/03/18 04:35:17;;;;;;;4.23;2.00;;;11.90;60.70;;;;;;5044952;28;20467;-73
2023/03/18 04:37:43;;;;;;;6.13;2.13;;;11.80;61.20;;;;;;5049025;28;20429;-74
2023/03/18 04:40:10;;;;;;;2.67;2.00;;;11.70;61.30;;;;;;5042364;28;20266;-73
2023/03/18 04:42:37;;;;;;;2.77;1.83;;;11.70;61.70;;;;;;5049355;28;20420;-73
2023/03/18 04:45:04;;;;;;;2.57;2.10;;;11.60;62.30;;;;;;5051905;28;20429;-73
2023/03/18 04:47:31;;;;;;;4.17;2.13;;;11.50;62.60;;;;;;5050129;28;20434;-73
2023/03/18 04:49:57;;;;;;;3.83;1.93;;;11.40;63.40;;;;;;5047997;28;20969;-73
2023/03/18 04:52:23;;;;;;;5.80;2.50;;;11.30;63.70;;;;;;5030899;28;20442;-73
2023/03/18 04:54:49;;;;;;;3.30;2.10;;;11.30;63.90;;;;;;5050393;28;20697;-73
2023/03/18 04:57:15;;;;;;;4.50;2.00;;;11.20;64.20;;;;;;5047960;28;20435;-73
2023/03/18 04:59:42;;;;;;;3.10;2.20;;;11.10;64.50;;;;;;5045021;28;20216;-72
2023/03/18 05:02:07;;;;;;;5.73;2.47;;;11.10;64.80;;;;;;5046759;28;20427;-73
2023/03/18 05:04:33;;;;;;;5.80;2.27;;;11.00;65.40;;;;;;5035023;28;20427;-73
2023/03/18 05:06:59;;;;;;;3.30;2.07;;;10.90;65.80;;;;;;5033439;28;20194;-74
2023/03/18 05:09:24;;;;;;;3.73;2.43;;;10.90;66.10;;;;;;5051055;28;20276;-74
2023/03/18 05:11:50;;;;;;;5.93;2.40;;;10.80;66.10;;;;;;5050163;28;20192;-73
2023/03/18 05:14:15;;;;;;;8.40;2.13;;;10.60;66.60;;;;;;5052214;28;20208;-73
2023/03/18 05:16:42;;;;;;;7.13;2.77;;;10.60;67.00;;;;;;5050230;28;20245;-73
2023/03/18 05:19:08;;;;;;;5.80;3.00;;;10.60;67.30;;;;;;5052659;28;20185;-74
2023/03/18 05:21:35;;;;;;;6.73;2.23;;;10.50;67.50;;;;;;5047923;28;20565;-74
2023/03/18 05:24:01;;;;;;;4.70;2.53;;;10.50;67.50;;;;;;5051415;28;20427;-73
2023/03/18 05:26:27;;;;;;;7.00;2.47;;;10.50;67.30;;;;;;5048511;28;20423;-75
2023/03/18 05:28:52;;;;;;;4.10;2.30;;;10.40;67.60;;;;;;5050752;28;20434;-73
2023/03/18 05:31:18;;;;;;;4.60;2.70;;;10.30;68.00;;;;;;5049259;28;20223;-74
2023/03/18 05:33:45;;;;;;;4.57;2.47;;;10.30;68.20;;;;;;5052261;28;20216;-74
2023/03/18 05:36:10;;;;;;;3.10;2.03;;;10.20;68.50;;;;;;5051554;28;20499;-75
2023/03/18 05:38:36;;;;;;;7.63;2.60;;;10.20;68.60;;;;;;5029668;28;20945;-74
2023/03/18 05:41:02;;;;;;;4.10;2.40;;;10.10;69.10;;;;;;5025089;28;20313;-74
2023/03/18 05:43:28;;;;;;;3.60;2.30;;;10.10;69.10;;;;;;5052303;28;20734;-74
2023/03/18 05:45:54;;;;;;;4.87;2.50;;;10.10;69.20;;;;;;5052711;28;20180;-74
2023/03/18 05:48:20;;;;;;;3.07;2.27;;;10.00;69.40;;;;;;5051998;28;20415;-73
2023/03/18 05:50:45;;;;;;;4.00;2.63;;;10.00;69.50;;;;;;5042659;28;20477;-74
2023/03/18 05:53:12;;;;;;;4.83;2.67;;;9.90;69.50;;;;;;5051337;28;20427;-74
2023/03/18 05:55:39;;;;;;;5.53;2.50;;;9.90;69.70;;;;;;5052206;28;20266;-73
2023/03/18 05:58:05;;;;;;;5.63;2.47;;;9.90;69.80;;;;;;5051836;28;20486;-74
2023/03/18 06:00:30;;;;;;;3.67;2.40;;;9.90;70.10;;;;;;5044862;28;20463;-74
2023/03/18 06:02:58;;;;;;;4.97;2.53;;;9.90;69.90;;;;;;5050017;28;20473;-73
2023/03/18 06:05:25;;;;;;;8.33;2.90;;;9.90;69.80;;;;;;5048733;28;20280;-74
2023/03/18 06:07:51;;;;;;;3.97;2.67;;;9.90;69.70;;;;;;5049242;28;20422;-72
2023/03/18 06:10:17;;;;;;;6.40;2.50;;;9.90;69.70;;;;;;5042280;28;21272;-74
2023/03/18 06:12:43;;;;;;;3.60;2.27;;;9.90;69.70;;;;;;5045484;28;20910;-74
2023/03/18 06:15:10;;;;;;;4.80;2.20;;;9.90;69.80;;;;;;5052492;28;20454;-75
2023/03/18 06:17:36;;;;;;;3.57;2.00;;;9.90;69.80;;;;;;5052076;28;20420;-74
2023/03/18 06:20:04;;;;;;;4.87;2.57;;;9.80;69.80;;;;;;5046154;28;20463;-74
2023/03/18 06:22:31;;;;;;;4.50;2.37;;;9.80;69.90;;;;;;5050541;28;20419;-74
2023/03/18 06:24:57;;;;;;;4.33;2.63;;;9.80;69.90;;;;;;5051138;28;20419;-74
2023/03/18 06:27:23;;;;;;;5.10;2.30;;;9.80;69.90;;;;;;5050443;28;20426;-73
2023/03/18 06:29:49;;;;;;;5.53;2.80;;;9.80;69.90;;;;;;5031658;28;20462;-74
2023/03/18 06:32:14;;;;;;;5.90;2.83;;;9.80;69.80;;;;;;5049923;28;20433;-75
2023/03/18 06:34:40;;;;;;;5.57;2.53;;;9.80;69.90;;;;;;5049257;28;20212;-74
2023/03/18 06:37:06;;;;;;;6.27;2.50;;;9.90;70.10;;;;;;5045319;28;20185;-73
2023/03/18 06:39:33;;;;;;;5.53;2.30;;;9.90;69.80;;;;;;5045620;28;20706;-73
2023/03/18 06:41:59;;;;;;;4.43;2.50;;;9.90;70.10;;;;;;5042010;28;20428;-74
2023/03/18 06:44:25;;;;;;;4.60;2.30;;;9.90;70.20;;;;;;5050291;28;20420;-73
2023/03/18 06:46:51;;;;;;;4.83;2.53;;;9.90;70.20;;;;;;5036126;28;20454;-73
2023/03/18 06:49:16;;;;;;;4.73;2.30;;;9.90;70.20;;;;;;5045176;28;20423;-73
2023/03/18 06:51:42;;;;;;;3.33;2.40;;;9.90;70.10;;;;;;5026877;28;20192;-74
2023/03/18 06:54:08;;;;;;;4.80;2.50;;;10.00;70.40;;;;;;5042921;28;20201;-74
2023/03/18 06:56:37;;;;;;;5.67;2.93;;;10.00;70.20;;;;;;5044419;28;20415;-74
2023/03/18 06:59:04;;;;;;;5.67;2.70;;;10.00;70.70;;;;;;5046639;28;20419;-74
2023/03/18 07:01:31;;;;;;;3.17;2.60;;;10.00;70.40;;;;;;5036742;28;20950;-73
2023/03/18 07:03:57;;;;;;;6.57;2.87;;;10.00;70.50;;;;;;5044697;28;20427;-74
2023/03/18 07:06:23;;;;;;;7.57;3.00;;;10.10;70.40;;;;;;5051547;28;20419;-74
2023/03/18 07:08:49;;;;;;;4.13;2.70;;;10.10;70.50;;;;;;5044548;28;20838;-75
2023/03/18 07:11:15;;;;;;;6.77;3.33;;;10.10;70.40;;;;;;5044321;28;20463;-75
2023/03/18 07:13:41;;;;;;;6.00;2.80;;;10.10;69.50;;;;;;5051667;28;20250;-74
2023/03/18 07:16:06;;;;;;;4.73;2.50;;;10.10;69.70;;;;;;5050579;28;20789;-74
2023/03/18 07:18:32;;;;;;;5.40;2.93;;;10.20;69.50;;;;;;5032781;28;20248;-73
2023/03/18 07:20:58;;;;;;;6.80;2.80;;;10.20;69.20;;;;;;5045508;28;20205;-74
2023/03/18 07:23:24;;;;;;;5.83;3.90;;;10.30;68.80;;;;;;5049553;28;20177;-73
2023/03/18 07:25:50;;;;;;;6.37;3.67;;;10.30;68.60;;;;;;5030848;28;20447;-73
2023/03/18 07:28:16;;;;;;;5.27;3.20;;;10.40;68.50;;;;;;5044863;28;20181;-73
2023/03/18 07:30:41;;;;;;;9.10;3.57;;;10.50;68.20;;;;;;5049825;28;20458;-75
2023/03/18 07:33:07;;;;;;;15.17;3.80;;;10.60;68.00;;;;;;5046306;28;20192;-74
2023/03/18 07:35:33;;;;;;;10.63;3.50;;;10.70;68.00;;;;;;5046665;28;20208;-74
2023/03/18 07:37:59;;;;;;;9.13;3.77;;;10.70;68.20;;;;;;5043422;28;20192;-73
2023/03/18 07:40:24;;;;;;;10.00;4.90;;;10.80;68.00;;;;;;5044566;28;20470;-74
2023/03/18 07:42:50;;;;;;;6.67;4.33;;;10.90;68.50;;;;;;5045806;28;20274;-74
2023/03/18 07:45:17;;;;;;;11.00;5.40;;;10.90;68.20;;;;;;5047536;28;20231;-73
2023/03/18 07:47:42;;;;;;;9.00;4.93;;;11.00;68.30;;;;;;5044610;28;20196;-74
2023/03/18 07:50:09;;;;;;;9.30;4.93;;;11.00;68.30;;;;;;5042609;28;20489;-73
2023/03/18 07:52:34;;;;;;;12.20;4.80;;;11.10;68.30;;;;;;5042683;28;20238;-74
2023/03/18 07:55:00;;;;;;;8.10;4.73;;;11.20;67.90;;;;;;5045329;28;20450;-74
2023/03/18 07:57:26;;;;;;;14.83;5.20;;;11.30;67.60;;;;;;5039730;28;20612;-75
2023/03/18 07:59:52;;;;;;;13.73;6.60;;;11.40;67.30;;;;;;5045787;28;20459;-75
2023/03/18 08:02:19;;;;;;;11.03;6.67;;;11.50;67.90;;;;;;5049512;28;20177;-75
2023/03/18 08:04:45;;;;;;;12.50;5.27;;;11.70;67.50;;;;;;5056071;28;20218;-75
2023/03/18 08:07:11;;;;;;;10.47;5.07;;;11.80;67.00;;;;;;5054070;28;20464;-75
2023/03/18 08:09:37;;;;;;;14.73;4.90;;;11.90;66.70;;;;;;5047994;28;20524;-74
2023/03/18 08:12:03;;;;;;;11.67;5.90;;;12.00;66.70;;;;;;5062869;28;20430;-74
2023/03/18 08:14:29;;;;;;;17.40;6.90;;;12.10;66.00;;;;;;5049618;28;20208;-75
2023/03/18 08:16:54;;;;;;;11.83;6.23;;;12.20;65.00;;;;;;5064852;28;20937;-74
2023/03/18 08:19:20;;;;;;;8.70;4.10;;;12.30;62.20;;;;;;5063058;28;20418;-74
2023/03/18 08:21:46;;;;;;;6.63;2.83;;;12.40;62.00;;;;;;5064125;28;20184;-73
2023/03/18 08:24:12;;;;;;;4.50;2.20;;;12.50;60.00;;;;;;5062639;28;20480;-74
2023/03/18 08:26:38;;;;;;;4.33;2.47;;;12.70;57.40;;;;;;5050224;28;20428;-75
2023/03/18 08:29:04;;;;;;;3.67;1.90;;;12.80;56.90;;;;;;5049564;28;20423;-74
2023/03/18 08:31:30;;;;;;;5.63;2.93;;;13.00;57.00;;;;;;5045568;28;20327;-75
2023/03/18 08:33:58;;;;;;;3.63;2.40;;;13.10;57.00;;;;;;5048681;28;20208;-74
2023/03/18 08:36:24;;;;;;;5.10;2.10;;;13.30;56.00;;;;;;5048234;28;20200;-74
2023/03/18 08:38:49;;;;;;;6.67;2.27;;;13.50;55.40;;;;;;5047215;28;20921;-75
2023/03/18 08:41:15;;;;;;;17.60;8.13;;;13.60;55.40;;;;;;5045791;28;20482;-75
2023/03/18 08:43:41;;;;;;;11.63;5.97;;;13.70;54.50;;;;;;5047485;28;20826;-75
2023/03/18 08:46:07;;;;;;;6.50;3.20;;;13.90;54.10;;;;;;5045104;28;20426;-74
2023/03/18 08:48:34;;;;;;;6.40;3.33;;;14.00;53.30;;;;;;5046347;28;20425;-75
2023/03/18 08:51:09;;;;;;;5.50;2.00;;;14.10;52.10;;;;;;5025326;28;20235;-74
2023/03/18 08:53:35;;;;;;;7.70;2.00;;;14.20;50.60;;;;;;5046394;28;20457;-74
2023/03/18 08:56:02;;;;;;;4.60;2.40;;;14.30;50.70;;;;;;5043563;28;20602;-74
2023/03/18 08:58:28;;;;;;;3.83;1.80;;;14.40;50.50;;;;;;5031144;28;20432;-74
2023/03/18 09:00:54;;;;;;;4.50;1.90;;;14.50;49.30;;;;;;5035747;28;20453;-74
2023/03/18 09:03:20;;;;;;;3.00;1.70;;;14.60;49.00;;;;;;5048105;28;20500;-73
2023/03/18 09:05:49;;;;;;;4.20;1.80;;;14.70;48.10;;;;;;5040793;28;20506;-74
2023/03/18 09:08:15;;;;;;;6.23;2.40;;;14.90;48.20;;;;;;5050225;28;20459;-75
2023/03/18 09:10:41;;;;;;;8.50;2.60;;;15.00;47.80;;;;;;5043989;28;20934;-74
2023/03/18 09:13:08;;;;;;;6.63;2.20;;;15.10;47.70;;;;;;5045623;28;20778;-75
2023/03/18 09:15:33;;;;;;;3.93;1.67;;;15.30;47.50;;;;;;5049485;28;20474;-74
2023/03/18 09:17:59;;;;;;;4.37;2.10;;;15.30;47.50;;;;;;5052291;28;20440;-74
2023/03/18 09:20:25;;;;;;;5.33;2.17;;;15.40;47.10;;;;;;5053727;28;20846;-75
2023/03/18 09:22:51;;;;;;;4.07;1.80;;;15.50;47.10;;;;;;5059928;28;20237;-75
2023/03/18 09:25:17;;;;;;;4.20;2.10;;;15.50;47.00;;;;;;5058859;28;20186;-75
2023/03/18 09:27:44;;;;;;;3.13;1.70;;;15.60;47.00;;;;;;5046413;28;21228;-75
2023/03/18 09:30:10;;;;;;;2.67;1.70;;;15.60;46.70;;;;;;5041740;28;20520;-74
2023/03/18 09:32:36;;;;;;;1.93;1.70;;;15.50;47.00;;;;;;5043022;28;20933;-74
2023/03/18 09:35:02;;;;;;;3.73;1.67;;;15.60;47.70;;;;;;5046659;28;20507;-74
2023/03/18 09:37:28;;;;;;;4.87;2.30;;;15.80;47.40;;;;;;5050910;28;20415;-74
2023/03/18 09:39:53;;;;;;;3.00;1.70;;;15.90;46.90;;;;;;5043523;28;20846;-75
2023/03/18 09:42:43;;;;;;;3.40;1.60;;;16.00;46.60;;;;;;5048897;28;20258;-74
2023/03/18 09:45:33;;;;;;;2.27;1.60;;;16.10;46.60;;;;;;5050281;28;20291;-75
2023/03/18 09:48:43;;;;;;;2.50;1.50;;;16.20;46.60;;;;;;5049581;28;20438;-74
2023/03/18 09:51:21;;;;;;;6.40;2.20;;;16.40;45.90;;;;;;5044366;28;20466;-75
2023/03/18 09:54:12;;;;;;;11.03;4.83;;;16.40;47.50;;;;;;5051975;28;20477;-74
2023/03/18 09:56:38;;;;;;;27.70;13.07;;;16.40;49.30;;;;;;5005660;28;20467;-75
2023/03/18 09:59:30;;;;;;;8.10;4.07;;;16.40;49.70;;;;;;5049057;28;20419;-74
2023/03/18 10:01:57;;;;;;;13.47;4.60;;;16.50;49.10;;;;;;5049657;28;20417;-75
2023/03/18 10:04:24;;;;;;;7.43;3.40;;;16.50;49.80;;;;;;5046734;28;20838;-76
2023/03/18 10:06:56;;;;;;;12.83;3.63;;;16.60;49.80;;;;;;5044090;28;20438;-74
2023/03/18 10:09:29;;;;;;;9.63;4.30;;;16.70;50.10;;;;;;5047718;28;20422;-75
2023/03/18 10:12:22;;;;;;;10.13;3.83;;;16.70;50.10;;;;;;5026646;28;20848;-74
2023/03/18 10:15:07;;;;;;;5.77;3.33;;;16.70;50.10;;;;;;5045263;28;20498;-71
2023/03/18 10:17:45;;;;;;;7.03;3.60;;;16.60;50.30;;;;;;5026469;28;20424;-71
2023/03/18 10:20:18;;;;;;;5.63;3.57;;;16.50;50.50;;;;;;5016209;28;20523;-71
2023/03/18 10:23:28;;;;;;;6.20;3.00;;;16.50;50.30;;;;;;5048311;28;20427;-71
2023/03/18 10:25:57;;;;;;;5.20;3.07;;;16.60;50.20;;;;;;5022326;28;20422;-72
2023/03/18 10:29:00;;;;;;;4.83;2.40;;;16.60;49.50;;;;;;5040123;28;20424;-71
2023/03/18 10:31:56;;;;;;;4.83;2.60;;;16.70;49.10;;;;;;5040377;28;20494;-70
2023/03/18 10:34:29;;;;;;;6.90;2.77;;;16.80;48.70;;;;;;5042218;28;20534;-71
2023/03/18 10:37:15;;;;;;;3.87;2.20;;;16.90;48.30;;;;;;5042397;28;20419;-73
2023/03/18 10:39:44;;;;;;;5.33;1.60;;;17.00;47.70;;;;;;5039346;28;20483;-73
2023/03/18 10:42:21;;;;;;;5.57;2.17;;;17.20;46.20;;;;;;5045369;28;20505;-73
2023/03/18 10:44:47;;;;;;;8.23;2.30;;;17.40;45.30;;;;;;5039029;28;20420;-72
2023/03/18 10:47:22;;;;;;;3.23;2.20;;;17.80;44.70;;;;;;5046289;28;20426;-72
2023/03/18 10:50:16;;;;;;;7.63;2.00;;;18.20;43.70;;;;;;5044675;28;20488;-73
2023/03/18 10:53:22;;;;;;;3.83;1.80;;;18.70;42.00;;;;;;5048909;28;20477;-72
2023/03/18 10:55:54;;;;;;;3.17;1.80;;;19.20;40.70;;;;;;5045056;28;22199;-73
2023/03/18 10:58:20;;;;;;;5.23;2.13;;;19.50;39.60;;;;;;5048392;28;20415;-73
2023/03/18 11:00:46;;;;;;;2.73;1.63;;;19.70;39.00;;;;;;5026612;28;20557;-73
2023/03/18 11:03:42;;;;;;;3.57;1.77;;;19.80;38.80;;;;;;5046792;28;20214;-73
2023/03/18 11:06:18;;;;;;;4.37;1.80;;;20.00;38.30;;;;;;5035636;28;20494;-73
2023/03/18 11:08:46;;;;;;;4.40;1.90;;;19.70;37.60;;;;;;5041669;28;20419;-73
2023/03/18 11:11:16;;;;;;;4.70;1.87;;;19.50;37.40;;;;;;5044989;28;20451;-73
2023/03/18 11:14:06;;;;;;;4.03;1.63;;;19.60;37.10;;;;;;5044811;28;20434;-74
2023/03/18 11:16:39;;;;;;;3.40;1.87;;;19.80;37.40;;;;;;5039571;28;20427;-73
2023/03/18 11:19:30;;;;;;;2.80;1.80;;;19.90;37.60;;;;;;5049908;28;20459;-74
2023/03/18 11:22:19;;;;;;;3.90;1.73;;;20.10;37.10;;;;;;5044538;28;20494;-72
2023/03/18 11:24:45;;;;;;;4.80;1.97;;;20.50;35.90;;;;;;5037918;28;20924;-73
2023/03/18 11:27:14;;;;;;;3.63;1.60;;;20.60;34.40;;;;;;5046434;28;20465;-73
2023/03/18 11:29:55;;;;;;;3.90;1.90;;;20.60;34.50;;;;;;5027433;28;20457;-73
2023/03/18 11:32:30;;;;;;;3.17;2.10;;;20.90;33.60;;;;;;5048506;28;20431;-73
2023/03/18 11:34:59;;;;;;;5.93;1.57;;;20.60;31.70;;;;;;5048638;28;20507;-73
2023/03/18 11:37:40;;;;;;;3.70;1.70;;;20.50;32.70;;;;;;5053692;28;20793;-73
2023/03/18 11:40:17;;;;;;;3.90;2.33;;;20.40;33.10;;;;;;5045106;28;20474;-74
2023/03/18 11:42:46;;;;;;;5.07;1.70;;;20.40;33.70;;;;;;5054734;28;20421;-73
2023/03/18 11:45:36;;;;;;;5.00;1.77;;;20.50;33.30;;;;;;5055622;28;20421;-72
2023/03/18 11:48:03;;;;;;;2.93;1.33;;;20.70;32.80;;;;;;5054007;28;20778;-74
2023/03/18 11:50:41;;;;;;;6.43;1.60;;;20.30;31.20;;;;;;5048164;28;20489;-72
2023/03/18 11:53:19;;;;;;;6.67;1.60;;;20.30;31.20;;;;;;5054460;28;20433;-73
2023/03/18 11:55:54;;;;;;;3.10;1.40;;;20.30;30.90;;;;;;5048558;28;20511;-73
2023/03/18 11:58:48;;;;;;;2.40;1.37;;;20.30;31.10;;;;;;5071927;28;20420;-72
2023/03/18 12:01:31;;;;;;;3.13;1.60;;;20.20;31.20;;;;;;5063944;28;20515;-73
2023/03/18 12:04:27;;;;;;;2.27;1.20;;;20.10;31.10;;;;;;5065085;28;20424;-73
2023/03/18 12:07:14;;;;;;;2.33;1.20;;;20.30;30.90;;;;;;5046842;28;20434;-74
2023/03/18 12:10:13;;;;;;;2.47;1.37;;;20.50;30.10;;;;;;5055729;28;20459;-74
2023/03/18 12:12:39;;;;;;;2.73;1.70;;;20.50;31.20;;;;;;5052871;28;20408;-73
2023/03/18 12:15:32;;;;;;;3.43;1.50;;;20.40;32.30;;;;;;5058194;28;20472;-76
2023/03/18 12:18:21;;;;;;;3.57;1.90;;;20.40;32.40;;;;;;5051095;28;20233;-73
2023/03/18 12:20:52;;;;;;;3.77;1.50;;;20.60;32.00;;;;;;5049428;28;20457;-73
2023/03/18 12:23:21;;;;;;;6.10;2.20;;;20.70;31.90;;;;;;5053591;28;20826;-73
2023/03/18 12:26:04;;;;;;;4.60;1.60;;;20.60;32.30;;;;;;5055235;28;21302;-74
2023/03/18 12:28:50;;;;;;;3.87;1.60;;;20.60;32.30;;;;;;5034660;28;20424;-73
2023/03/18 12:31:22;;;;;;;2.97;1.73;;;20.80;32.10;;;;;;5047444;28;20882;-73
2023/03/18 12:34:00;;;;;;;5.07;1.53;;;21.00;32.40;;;;;;5049568;28;20432;-73
2023/03/18 12:36:43;;;;;;;3.30;1.50;;;21.10;32.10;;;;;;5053744;28;20421;-72
2023/03/18 12:39:20;;;;;;;2.20;1.33;;;21.20;31.70;;;;;;5055490;28;20440;-74
2023/03/18 12:42:08;;;;;;;3.70;1.70;;;21.60;31.20;;;;;;5034149;28;20431;-73
2023/03/18 12:44:33;;;;;;;3.40;1.60;;;21.60;31.30;;;;;;5052230;28;20497;-73
2023/03/18 12:47:10;;;;;;;3.00;1.80;;;21.50;31.50;;;;;;5052233;28;20535;-73
2023/03/18 12:49:44;;;;;;;3.30;1.60;;;21.30;31.20;;;;;;5042703;28;20290;-72
2023/03/18 12:52:22;;;;;;;2.80;1.57;;;21.30;31.20;;;;;;5044827;28;20441;-73
2023/03/18 12:55:01;;;;;;;3.43;1.70;;;21.20;30.70;;;;;;5030088;28;20468;-73
2023/03/18 12:57:51;;;;;;;5.07;1.87;;;21.40;31.20;;;;;;5045405;28;20477;-74
2023/03/18 13:00:48;;;;;;;6.67;1.93;;;21.70;30.70;;;;;;5042014;28;20458;-72
2023/03/18 13:03:34;;;;;;;3.87;1.73;;;22.00;29.50;;;;;;5050535;28;20494;-73